Terminal Aerodrome Forecast
Issued by NWS Sterling, VA

Current Version | Previous Version | Text Only | Print | Product List | Glossary Off
Versions: 1 2 3 4 5 6 7 8 9 10 11 12 13 14 15 16 17 18 19 20 21 22 23 24 25 26

000
FTUS41 KLWX 200529
TAFIAD
TAF
KIAD 200529Z 2006/2112 33012KT P6SM SKC
     FM202200 32008KT P6SM FEW040 SCT250
     FM210200 35004KT P6SM SCT120
     FM210300 36004KT P6SM BKN110
     FM211000 VRB03KT P6SM -SHRA BKN050=

USA.gov is the U.S. government's official web portal to all federal, state and local government web resources and services.